Innovator — WDG7137 — position and weather

sailwx.info

Track history (hours):
 
Tides and Currents Weather Stations Pressure Air Temp Water Temp Dewpoint Dewpoint Depression Visibility Wind Speed Wind Dir Waves Ship Positions

Innovator

Owner: Enterprise Marine Services, LLC, San Antonio, TX. More information available from US FCC via Universal Licensing System and Coast Guard Vessel Documentation Center.

Last reported at 2018-Feb-20 07:30 UTC. Time now 2018-Feb-21 09:27 UTC.
Position N 28°57' W 095°20'.

Length 23 m; draft 2.9 m.

Type: . MMSI: 367564240.

Date/timePositionNaut miles runAvg speedWind from/ knotsBaromVisibWave heightAir tempDewpointWater temp
2018-Feb-20 07:30N 28°57' W 095°20'0 0.0
2018-Feb-20 06:49N 28°57' W 095°20'0 0.0
2018-Feb-19 07:21N 28°57' W 095°20'0 0.0
2018-Feb-19 06:59N 28°57' W 095°20'0 0.0
2018-Feb-19 06:08N 28°57' W 095°20'0 0.0
2018-Feb-19 06:00N 28°57' W 095°20'0 0.0
2018-Feb-19 05:28N 28°57' W 095°20'0 0.0
2018-Feb-19 04:59N 28°57' W 095°20'0 0.0
2018-Feb-19 04:17N 28°57' W 095°20'1 0.0
2018-Feb-18 09:56N 28°57' W 095°20'0 0.0
2018-Feb-18 09:10N 28°57' W 095°20'0 0.0
2018-Feb-18 09:00N 28°57' W 095°20'23 1.0
2018-Feb-17 09:27N 29°13' W 095°02'0 0.0
2018-Feb-17 09:00N 29°13' W 095°02'0 0.0
2018-Feb-17 08:28N 29°13' W 095°02'0 0.0
2018-Feb-17 07:55N 29°13' W 095°02'0 0.0
2018-Feb-17 07:30N 29°13' W 095°02'0 0.0
2018-Feb-17 06:56N 29°13' W 095°02'0 0.0
2018-Feb-17 06:24N 29°13' W 095°02'0 0.0
2018-Feb-17 05:58N 29°13' W 095°02'0 0.0
2018-Feb-17 03:59N 29°13' W 095°02'0 0.0
2018-Feb-17 03:18N 29°13' W 095°02'0 0.1
2018-Feb-17 02:52N 29°13' W 095°02'0 0.2
2018-Feb-17 02:16N 29°13' W 095°02'0 1.0
2018-Feb-17 02:00N 29°14' W 095°02'2 4.4
2018-Feb-17 01:30N 29°15' W 094°60'3 4.7
2018-Feb-17 00:57N 29°17' W 094°58'3 5.0
2018-Feb-17 00:25N 29°17' W 094°55'3 4.4
2018-Feb-16 23:48N 29°19' W 094°52'4 4.2
2018-Feb-16 22:48N 29°21' W 094°49'4 0.4
2018-Feb-16 10:23N 29°22' W 094°53'0 0.0
2018-Feb-16 10:00N 29°22' W 094°53'0 0.0
2018-Feb-16 09:15N 29°22' W 094°53'0 0.0
2018-Feb-16 08:50N 29°22' W 094°53'0 0.0
2018-Feb-16 08:22N 29°22' W 094°53'0 0.0
2018-Feb-16 07:59N 29°22' W 094°53'0 0.0
2018-Feb-16 07:17N 29°22' W 094°53'0 0.0
2018-Feb-16 06:56N 29°22' W 094°53'0 0.0
2018-Feb-16 06:30N 29°22' W 094°53'0 0.0
2018-Feb-16 05:59N 29°22' W 094°53'0 0.0
2018-Feb-16 05:30N 29°22' W 094°53'0 0.0
2018-Feb-16 04:56N 29°22' W 094°53'0 0.0
2018-Feb-16 04:28N 29°22' W 094°53'0 0.0
2018-Feb-16 03:59N 29°22' W 094°53'0 0.0
2018-Feb-16 03:27N 29°22' W 094°53'0 0.0
2018-Feb-16 02:59N 29°22' W 094°53'0 0.0
2018-Feb-16 02:30N 29°22' W 094°53'0 0.0
2018-Feb-16 01:56N 29°22' W 094°53'0 0.0
2018-Feb-16 01:29N 29°22' W 094°53'0 0.0
2018-Feb-16 00:58N 29°22' W 094°53'0 0.0
2018-Feb-16 00:30N 29°22' W 094°53'0 0.0
2018-Feb-16 00:00N 29°22' W 094°53'0 0.0
2018-Feb-15 23:29N 29°22' W 094°53'0 0.0
2018-Feb-15 23:00N 29°22' W 094°53'0 0.0
2018-Feb-15 22:30N 29°22' W 094°53'0 0.0
2018-Feb-15 21:58N 29°22' W 094°53'0 0.0
2018-Feb-15 21:23N 29°22' W 094°53'0 0.0
2018-Feb-15 20:54N 29°22' W 094°53'0 0.0
2018-Feb-15 20:28N 29°22' W 094°53'0 0.0
2018-Feb-15 19:45N 29°22' W 094°53'0 0.0
2018-Feb-15 19:29N 29°22' W 094°53'0 0.0
2018-Feb-15 18:56N 29°22' W 094°53'0 0.0
2018-Feb-15 18:28N 29°22' W 094°53'0 0.0
2018-Feb-15 17:40N 29°22' W 094°53'0 0.0
2018-Feb-15 17:22N 29°22' W 094°53'0 0.1
2018-Feb-15 16:55N 29°22' W 094°53'0 0.0
2018-Feb-15 10:25N 29°22' W 094°53'0 0.0
2018-Feb-15 09:26N 29°22' W 094°53'0 0.0
2018-Feb-15 08:56N 29°22' W 094°53'0 0.0
2018-Feb-15 08:29N 29°22' W 094°53'0 0.0
2018-Feb-15 07:18N 29°22' W 094°53'0 0.0
2018-Feb-15 06:58N 29°22' W 094°53'0 0.0
2018-Feb-15 06:14N 29°22' W 094°53'0 0.0
2018-Feb-15 05:54N 29°22' W 094°53'0 0.0
2018-Feb-15 05:28N 29°22' W 094°53'0 0.0
2018-Feb-15 05:00N 29°22' W 094°53'0 0.0
2018-Feb-15 04:30N 29°22' W 094°53'0 0.0
2018-Feb-15 03:59N 29°22' W 094°53'0 0.0
2018-Feb-15 03:30N 29°22' W 094°53'0 0.0
2018-Feb-15 03:00N 29°22' W 094°53'0 0.1
2018-Feb-15 02:28N 29°22' W 094°53'0 0.0
2018-Feb-15 01:14N 29°22' W 094°53'0 0.0
2018-Feb-15 00:23N 29°22' W 094°53'1 1.3
2018-Feb-14 23:57N 29°23' W 094°53'2 4.4
2018-Feb-14 23:29N 29°22' W 094°51'3 5.1
2018-Feb-14 22:59N 29°22' W 094°48'4 4.2
2018-Feb-14 22:04N 29°25' W 094°44'0 0.1
2018-Feb-14 22:00N 29°25' W 094°44'0 0.0
2018-Feb-14 20:33N 29°25' W 094°44'0 0.1
2018-Feb-14 20:28N 29°25' W 094°44'1 1.5
2018-Feb-14 19:58N 29°25' W 094°44'0 0.1
2018-Feb-14 19:16N 29°25' W 094°44'4 4.8
2018-Feb-14 18:29N 29°27' W 094°41'3 5.9
2018-Feb-14 18:00N 29°28' W 094°38'3 6.0
2018-Feb-14 17:29N 29°30' W 094°34'3 6.1
2018-Feb-14 16:58N 29°31' W 094°31'3 5.9
2018-Feb-14 16:28N 29°33' W 094°28'3 5.7
2018-Feb-14 16:00N 29°34' W 094°26'1 2.9
2018-Feb-14 15:30N 29°35' W 094°25'0 0.0
2018-Feb-14 14:58N 29°35' W 094°25'0 0.0
2018-Feb-14 13:25N 29°35' W 094°25'0 0.0
2018-Feb-14 10:13N 29°35' W 094°25'0 0.0
2018-Feb-14 10:00N 29°35' W 094°25'0 0.0
2018-Feb-14 09:27N 29°35' W 094°25'0 0.0
2018-Feb-14 07:13N 29°35' W 094°25'0 0.0
2018-Feb-14 07:00N 29°35' W 094°25'0 0.0
2018-Feb-14 06:18N 29°35' W 094°25'0 0.0
2018-Feb-14 06:01N 29°35' W 094°25'1 1.3
2018-Feb-14 05:20N 29°36' W 094°24'2 4.9
2018-Feb-14 04:50N 29°37' W 094°22'2 5.3
2018-Feb-14 04:30N 29°37' W 094°20'3 6.1
2018-Feb-14 03:58N 29°39' W 094°16'3 6.1
2018-Feb-14 03:31N 29°40' W 094°14'3 6.2
2018-Feb-14 03:00N 29°41' W 094°10'1 2.1
2018-Feb-14 02:30N 29°42' W 094°09'3 5.4
2018-Feb-14 02:00N 29°43' W 094°07'2 4.9
2018-Feb-14 01:30N 29°45' W 094°04'3 5.4
2018-Feb-14 01:00N 29°47' W 094°02'3 5.3
2018-Feb-14 00:30N 29°49' W 093°60'3 6.0
2018-Feb-14 00:00N 29°50' W 093°57'3 6.3
2018-Feb-13 23:30N 29°53' W 093°55'3 6.5
2018-Feb-13 23:00N 29°55' W 093°53'1 1.8
2018-Feb-13 22:30N 29°56' W 093°52'0 0.0
2018-Feb-13 22:00N 29°56' W 093°52'0 0.0
2018-Feb-13 21:30N 29°56' W 093°52'0 0.0
2018-Feb-13 21:00N 29°56' W 093°52'0 0.0
2018-Feb-13 20:30N 29°56' W 093°52'0 0.0
2018-Feb-13 20:00N 29°56' W 093°52'0 0.0
2018-Feb-13 19:30N 29°56' W 093°52'0 0.0
2018-Feb-13 19:00N 29°56' W 093°52'0 0.0
2018-Feb-13 18:30N 29°56' W 093°52'1 2.3
2018-Feb-13 18:00N 29°55' W 093°53'2 4.9
2018-Feb-13 17:30N 29°57' W 093°52'3 6.1
2018-Feb-13 17:00N 29°59' W 093°49'4 7.1
2018-Feb-13 16:30N 30°01' W 093°45'3 6.4
2018-Feb-13 16:00N 30°03' W 093°42'1 1.7
2018-Feb-13 15:29N 30°03' W 093°42'3 6.2
2018-Feb-13 14:59N 30°04' W 093°38'3 6.1
2018-Feb-13 14:29N 30°04' W 093°34'3 6.8
2018-Feb-13 14:00N 30°04' W 093°31'3 5.7
2018-Feb-13 13:30N 30°04' W 093°27'3 6.1
2018-Feb-13 13:00N 30°04' W 093°24'3 5.5
2018-Feb-13 12:30N 30°04' W 093°21'2 4.7
2018-Feb-13 12:00N 30°06' W 093°19'0 0.3
2018-Feb-13 11:26N 30°06' W 093°19'0 0.1
2018-Feb-13 11:00N 30°06' W 093°19'0 0.9
2018-Feb-13 10:30N 30°06' W 093°18'3 5.4
2018-Feb-13 10:00N 30°04' W 093°16'3 5.6
2018-Feb-13 09:30N 30°02' W 093°15'3 6.3
2018-Feb-13 08:58N 29°59' W 093°12'1 3.2
2018-Feb-13 08:30N 29°58' W 093°11'0 0.1
2018-Feb-13 07:59N 29°58' W 093°11'0 0.0
2018-Feb-13 07:28N 29°58' W 093°11'0 0.0
2018-Feb-13 07:00N 29°58' W 093°11'0 0.0
2018-Feb-13 06:30N 29°58' W 093°11'0 0.0
2018-Feb-13 05:55N 29°58' W 093°11'0 0.0
2018-Feb-13 05:29N 29°58' W 093°11'0 0.0
2018-Feb-13 05:00N 29°58' W 093°11'0 0.0
2018-Feb-13 04:30N 29°58' W 093°11'0 0.0
2018-Feb-13 04:00N 29°58' W 093°11'0 0.0
2018-Feb-13 03:29N 29°58' W 093°11'0 0.0
2018-Feb-13 03:00N 29°58' W 093°11'0 0.0
2018-Feb-13 02:30N 29°58' W 093°11'0 0.0
2018-Feb-13 02:00N 29°58' W 093°11'0 0.0
2018-Feb-13 01:28N 29°58' W 093°11'0 0.0
2018-Feb-13 01:00N 29°58' W 093°11'0 0.1
2018-Feb-13 00:29N 29°58' W 093°11'0 0.1
2018-Feb-13 00:01N 29°58' W 093°11'3 5.8
2018-Feb-12 23:29N 29°56' W 093°08'5 3.9
2018-Feb-12 22:19N 29°56' W 093°03'0 0.0
2018-Feb-12 20:54N 29°56' W 093°03'0 0.0
2018-Feb-12 19:44N 29°56' W 093°03'0 0.0
2018-Feb-12 19:23N 29°56' W 093°03'0 0.0
2018-Feb-12 18:59N 29°56' W 093°03'0 0.1
2018-Feb-12 18:30N 29°56' W 093°03'0 0.0
2018-Feb-12 17:56N 29°56' W 093°03'0 0.0
2018-Feb-12 17:28N 29°56' W 093°03'0 0.0
2018-Feb-12 09:24N 29°56' W 093°03'0 0.0
2018-Feb-12 05:34N 29°56' W 093°03'0 0.1
2018-Feb-12 05:28N 29°56' W 093°03'0 0.0
2018-Feb-12 03:54N 29°56' W 093°03'0 0.0
2018-Feb-12 03:11N 29°56' W 093°03'0 0.0
2018-Feb-12 02:54N 29°56' W 093°03'36 2.8
2018-Feb-11 13:54N 29°51' W 092°22'2 4.7
2018-Feb-11 13:31N 29°50' W 092°20'2 4.7
2018-Feb-11 13:01N 29°49' W 092°17'1 2.9
2018-Feb-11 12:30N 29°48' W 092°16'0 0.0
2018-Feb-11 12:01N 29°49' W 092°16'0 0.0
2018-Feb-11 11:31N 29°49' W 092°16'0 0.0
2018-Feb-11 11:01N 29°49' W 092°16'0 0.0
2018-Feb-11 10:30N 29°49' W 092°16'0 0.0
2018-Feb-11 10:01N 29°49' W 092°16'0 0.0
2018-Feb-11 09:31N 29°49' W 092°16'0 0.0
2018-Feb-11 09:00N 29°49' W 092°16'0 0.0
2018-Feb-11 08:31N 29°49' W 092°16'0 0.0
2018-Feb-11 08:00N 29°49' W 092°16'0 0.0
2018-Feb-11 07:30N 29°49' W 092°16'0 0.0
2018-Feb-11 07:00N 29°49' W 092°16'0 0.0
2018-Feb-11 06:30N 29°49' W 092°16'0 0.0
2018-Feb-11 06:01N 29°49' W 092°16'0 0.0
2018-Feb-11 05:30N 29°49' W 092°16'0 0.0
2018-Feb-11 05:00N 29°49' W 092°16'0 0.0
2018-Feb-11 04:30N 29°48' W 092°16'2 3.5
2018-Feb-11 04:01N 29°48' W 092°14'3 5.1
2018-Feb-11 03:30N 29°47' W 092°11'1 2.7
2018-Feb-11 03:01N 29°47' W 092°10'2 3.9
2018-Feb-11 02:30N 29°47' W 092°08'3 6.1
2018-Feb-11 02:00N 29°48' W 092°04'2 4.6
2018-Feb-11 01:30N 29°49' W 092°02'2 4.8
2018-Feb-11 01:00N 29°50' W 091°59'  
Track history (hours):
 
Tides and Currents Weather Stations Pressure Air Temp Water Temp Dewpoint Dewpoint Depression Visibility Wind Speed Wind Dir Waves Ship Positions

Innovator

Owner: Enterprise Marine Services, LLC, San Antonio, TX. More information available from US FCC via Universal Licensing System and Coast Guard Vessel Documentation Center.

Last reported at 2018-Feb-20 07:30 UTC. Time now 2018-Feb-21 09:27 UTC.
Position N 28°57' W 095°20'.

Length 23 m; draft 2.9 m.

Type: . MMSI: 367564240.

Date/timePositionNaut miles runAvg speedWind from/ knotsBaromVisibWave heightAir tempDewpointWater temp
2018-Feb-20 07:30N 28°57' W 095°20'0 0.0
2018-Feb-20 06:49N 28°57' W 095°20'0 0.0
2018-Feb-19 07:21N 28°57' W 095°20'0 0.0
2018-Feb-19 06:59N 28°57' W 095°20'0 0.0
2018-Feb-19 06:08N 28°57' W 095°20'0 0.0
2018-Feb-19 06:00N 28°57' W 095°20'0 0.0
2018-Feb-19 05:28N 28°57' W 095°20'0 0.0
2018-Feb-19 04:59N 28°57' W 095°20'0 0.0
2018-Feb-19 04:17N 28°57' W 095°20'1 0.0
2018-Feb-18 09:56N 28°57' W 095°20'0 0.0
2018-Feb-18 09:10N 28°57' W 095°20'0 0.0
2018-Feb-18 09:00N 28°57' W 095°20'23 1.0
2018-Feb-17 09:27N 29°13' W 095°02'0 0.0
2018-Feb-17 09:00N 29°13' W 095°02'0 0.0
2018-Feb-17 08:28N 29°13' W 095°02'0 0.0
2018-Feb-17 07:55N 29°13' W 095°02'0 0.0
2018-Feb-17 07:30N 29°13' W 095°02'0 0.0
2018-Feb-17 06:56N 29°13' W 095°02'0 0.0
2018-Feb-17 06:24N 29°13' W 095°02'0 0.0
2018-Feb-17 05:58N 29°13' W 095°02'0 0.0
2018-Feb-17 03:59N 29°13' W 095°02'0 0.0
2018-Feb-17 03:18N 29°13' W 095°02'0 0.1
2018-Feb-17 02:52N 29°13' W 095°02'0 0.2
2018-Feb-17 02:16N 29°13' W 095°02'0 1.0
2018-Feb-17 02:00N 29°14' W 095°02'2 4.4
2018-Feb-17 01:30N 29°15' W 094°60'3 4.7
2018-Feb-17 00:57N 29°17' W 094°58'3 5.0
2018-Feb-17 00:25N 29°17' W 094°55'3 4.4
2018-Feb-16 23:48N 29°19' W 094°52'4 4.2
2018-Feb-16 22:48N 29°21' W 094°49'4 0.4
2018-Feb-16 10:23N 29°22' W 094°53'0 0.0
2018-Feb-16 10:00N 29°22' W 094°53'0 0.0
2018-Feb-16 09:15N 29°22' W 094°53'0 0.0
2018-Feb-16 08:50N 29°22' W 094°53'0 0.0
2018-Feb-16 08:22N 29°22' W 094°53'0 0.0
2018-Feb-16 07:59N 29°22' W 094°53'0 0.0
2018-Feb-16 07:17N 29°22' W 094°53'0 0.0
2018-Feb-16 06:56N 29°22' W 094°53'0 0.0
2018-Feb-16 06:30N 29°22' W 094°53'0 0.0
2018-Feb-16 05:59N 29°22' W 094°53'0 0.0
2018-Feb-16 05:30N 29°22' W 094°53'0 0.0
2018-Feb-16 04:56N 29°22' W 094°53'0 0.0
2018-Feb-16 04:28N 29°22' W 094°53'0 0.0
2018-Feb-16 03:59N 29°22' W 094°53'0 0.0
2018-Feb-16 03:27N 29°22' W 094°53'0 0.0
2018-Feb-16 02:59N 29°22' W 094°53'0 0.0
2018-Feb-16 02:30N 29°22' W 094°53'0 0.0
2018-Feb-16 01:56N 29°22' W 094°53'0 0.0
2018-Feb-16 01:29N 29°22' W 094°53'0 0.0
2018-Feb-16 00:58N 29°22' W 094°53'0 0.0
2018-Feb-16 00:30N 29°22' W 094°53'0 0.0
2018-Feb-16 00:00N 29°22' W 094°53'0 0.0
2018-Feb-15 23:29N 29°22' W 094°53'0 0.0
2018-Feb-15 23:00N 29°22' W 094°53'0 0.0
2018-Feb-15 22:30N 29°22' W 094°53'0 0.0
2018-Feb-15 21:58N 29°22' W 094°53'0 0.0
2018-Feb-15 21:23N 29°22' W 094°53'0 0.0
2018-Feb-15 20:54N 29°22' W 094°53'0 0.0
2018-Feb-15 20:28N 29°22' W 094°53'0 0.0
2018-Feb-15 19:45N 29°22' W 094°53'0 0.0
2018-Feb-15 19:29N 29°22' W 094°53'0 0.0
2018-Feb-15 18:56N 29°22' W 094°53'0 0.0
2018-Feb-15 18:28N 29°22' W 094°53'0 0.0
2018-Feb-15 17:40N 29°22' W 094°53'0 0.0
2018-Feb-15 17:22N 29°22' W 094°53'0 0.1
2018-Feb-15 16:55N 29°22' W 094°53'0 0.0
2018-Feb-15 10:25N 29°22' W 094°53'0 0.0
2018-Feb-15 09:26N 29°22' W 094°53'0 0.0
2018-Feb-15 08:56N 29°22' W 094°53'0 0.0
2018-Feb-15 08:29N 29°22' W 094°53'0 0.0
2018-Feb-15 07:18N 29°22' W 094°53'0 0.0
2018-Feb-15 06:58N 29°22' W 094°53'0 0.0
2018-Feb-15 06:14N 29°22' W 094°53'0 0.0
2018-Feb-15 05:54N 29°22' W 094°53'0 0.0
2018-Feb-15 05:28N 29°22' W 094°53'0 0.0
2018-Feb-15 05:00N 29°22' W 094°53'0 0.0
2018-Feb-15 04:30N 29°22' W 094°53'0 0.0
2018-Feb-15 03:59N 29°22' W 094°53'0 0.0
2018-Feb-15 03:30N 29°22' W 094°53'0 0.0
2018-Feb-15 03:00N 29°22' W 094°53'0 0.1
2018-Feb-15 02:28N 29°22' W 094°53'0 0.0
2018-Feb-15 01:14N 29°22' W 094°53'0 0.0
2018-Feb-15 00:23N 29°22' W 094°53'1 1.3
2018-Feb-14 23:57N 29°23' W 094°53'2 4.4
2018-Feb-14 23:29N 29°22' W 094°51'3 5.1
2018-Feb-14 22:59N 29°22' W 094°48'4 4.2
2018-Feb-14 22:04N 29°25' W 094°44'0 0.1
2018-Feb-14 22:00N 29°25' W 094°44'0 0.0
2018-Feb-14 20:33N 29°25' W 094°44'0 0.1
2018-Feb-14 20:28N 29°25' W 094°44'1 1.5
2018-Feb-14 19:58N 29°25' W 094°44'0 0.1
2018-Feb-14 19:16N 29°25' W 094°44'4 4.8
2018-Feb-14 18:29N 29°27' W 094°41'3 5.9
2018-Feb-14 18:00N 29°28' W 094°38'3 6.0
2018-Feb-14 17:29N 29°30' W 094°34'3 6.1
2018-Feb-14 16:58N 29°31' W 094°31'3 5.9
2018-Feb-14 16:28N 29°33' W 094°28'3 5.7
2018-Feb-14 16:00N 29°34' W 094°26'1 2.9
2018-Feb-14 15:30N 29°35' W 094°25'0 0.0
2018-Feb-14 14:58N 29°35' W 094°25'0 0.0
2018-Feb-14 13:25N 29°35' W 094°25'0 0.0
2018-Feb-14 10:13N 29°35' W 094°25'0 0.0
2018-Feb-14 10:00N 29°35' W 094°25'0 0.0
2018-Feb-14 09:27N 29°35' W 094°25'0 0.0
2018-Feb-14 07:13N 29°35' W 094°25'0 0.0
2018-Feb-14 07:00N 29°35' W 094°25'0 0.0
2018-Feb-14 06:18N 29°35' W 094°25'0 0.0
2018-Feb-14 06:01N 29°35' W 094°25'1 1.3
2018-Feb-14 05:20N 29°36' W 094°24'2 4.9
2018-Feb-14 04:50N 29°37' W 094°22'2 5.3
2018-Feb-14 04:30N 29°37' W 094°20'3 6.1
2018-Feb-14 03:58N 29°39' W 094°16'3 6.1
2018-Feb-14 03:31N 29°40' W 094°14'3 6.2
2018-Feb-14 03:00N 29°41' W 094°10'1 2.1
2018-Feb-14 02:30N 29°42' W 094°09'3 5.4
2018-Feb-14 02:00N 29°43' W 094°07'2 4.9
2018-Feb-14 01:30N 29°45' W 094°04'3 5.4
2018-Feb-14 01:00N 29°47' W 094°02'3 5.3
2018-Feb-14 00:30N 29°49' W 093°60'3 6.0
2018-Feb-14 00:00N 29°50' W 093°57'3 6.3
2018-Feb-13 23:30N 29°53' W 093°55'3 6.5
2018-Feb-13 23:00N 29°55' W 093°53'1 1.8
2018-Feb-13 22:30N 29°56' W 093°52'0 0.0
2018-Feb-13 22:00N 29°56' W 093°52'0 0.0
2018-Feb-13 21:30N 29°56' W 093°52'0 0.0
2018-Feb-13 21:00N 29°56' W 093°52'0 0.0
2018-Feb-13 20:30N 29°56' W 093°52'0 0.0
2018-Feb-13 20:00N 29°56' W 093°52'0 0.0
2018-Feb-13 19:30N 29°56' W 093°52'0 0.0
2018-Feb-13 19:00N 29°56' W 093°52'0 0.0
2018-Feb-13 18:30N 29°56' W 093°52'1 2.3
2018-Feb-13 18:00N 29°55' W 093°53'2 4.9
2018-Feb-13 17:30N 29°57' W 093°52'3 6.1
2018-Feb-13 17:00N 29°59' W 093°49'4 7.1
2018-Feb-13 16:30N 30°01' W 093°45'3 6.4
2018-Feb-13 16:00N 30°03' W 093°42'1 1.7
2018-Feb-13 15:29N 30°03' W 093°42'3 6.2
2018-Feb-13 14:59N 30°04' W 093°38'3 6.1
2018-Feb-13 14:29N 30°04' W 093°34'3 6.8
2018-Feb-13 14:00N 30°04' W 093°31'3 5.7
2018-Feb-13 13:30N 30°04' W 093°27'3 6.1
2018-Feb-13 13:00N 30°04' W 093°24'3 5.5
2018-Feb-13 12:30N 30°04' W 093°21'2 4.7
2018-Feb-13 12:00N 30°06' W 093°19'0 0.3
2018-Feb-13 11:26N 30°06' W 093°19'0 0.1
2018-Feb-13 11:00N 30°06' W 093°19'0 0.9
2018-Feb-13 10:30N 30°06' W 093°18'3 5.4
2018-Feb-13 10:00N 30°04' W 093°16'3 5.6
2018-Feb-13 09:30N 30°02' W 093°15'3 6.3
2018-Feb-13 08:58N 29°59' W 093°12'1 3.2
2018-Feb-13 08:30N 29°58' W 093°11'0 0.1
2018-Feb-13 07:59N 29°58' W 093°11'0 0.0
2018-Feb-13 07:28N 29°58' W 093°11'0 0.0
2018-Feb-13 07:00N 29°58' W 093°11'0 0.0
2018-Feb-13 06:30N 29°58' W 093°11'0 0.0
2018-Feb-13 05:55N 29°58' W 093°11'0 0.0
2018-Feb-13 05:29N 29°58' W 093°11'0 0.0
2018-Feb-13 05:00N 29°58' W 093°11'0 0.0
2018-Feb-13 04:30N 29°58' W 093°11'0 0.0
2018-Feb-13 04:00N 29°58' W 093°11'0 0.0
2018-Feb-13 03:29N 29°58' W 093°11'0 0.0
2018-Feb-13 03:00N 29°58' W 093°11'0 0.0
2018-Feb-13 02:30N 29°58' W 093°11'0 0.0
2018-Feb-13 02:00N 29°58' W 093°11'0 0.0
2018-Feb-13 01:28N 29°58' W 093°11'0 0.0
2018-Feb-13 01:00N 29°58' W 093°11'0 0.1
2018-Feb-13 00:29N 29°58' W 093°11'0 0.1
2018-Feb-13 00:01N 29°58' W 093°11'3 5.8
2018-Feb-12 23:29N 29°56' W 093°08'5 3.9
2018-Feb-12 22:19N 29°56' W 093°03'0 0.0
2018-Feb-12 20:54N 29°56' W 093°03'0 0.0
2018-Feb-12 19:44N 29°56' W 093°03'0 0.0
2018-Feb-12 19:23N 29°56' W 093°03'0 0.0
2018-Feb-12 18:59N 29°56' W 093°03'0 0.1
2018-Feb-12 18:30N 29°56' W 093°03'0 0.0
2018-Feb-12 17:56N 29°56' W 093°03'0 0.0
2018-Feb-12 17:28N 29°56' W 093°03'0 0.0
2018-Feb-12 09:24N 29°56' W 093°03'0 0.0
2018-Feb-12 05:34N 29°56' W 093°03'0 0.1
2018-Feb-12 05:28N 29°56' W 093°03'0 0.0
2018-Feb-12 03:54N 29°56' W 093°03'0 0.0
2018-Feb-12 03:11N 29°56' W 093°03'0 0.0
2018-Feb-12 02:54N 29°56' W 093°03'36 2.8
2018-Feb-11 13:54N 29°51' W 092°22'2 4.7
2018-Feb-11 13:31N 29°50' W 092°20'2 4.7
2018-Feb-11 13:01N 29°49' W 092°17'1 2.9
2018-Feb-11 12:30N 29°48' W 092°16'0 0.0
2018-Feb-11 12:01N 29°49' W 092°16'0 0.0
2018-Feb-11 11:31N 29°49' W 092°16'0 0.0
2018-Feb-11 11:01N 29°49' W 092°16'0 0.0
2018-Feb-11 10:30N 29°49' W 092°16'0 0.0
2018-Feb-11 10:01N 29°49' W 092°16'0 0.0
2018-Feb-11 09:31N 29°49' W 092°16'0 0.0
2018-Feb-11 09:00N 29°49' W 092°16'0 0.0
2018-Feb-11 08:31N 29°49' W 092°16'0 0.0
2018-Feb-11 08:00N 29°49' W 092°16'0 0.0
2018-Feb-11 07:30N 29°49' W 092°16'0 0.0
2018-Feb-11 07:00N 29°49' W 092°16'0 0.0
2018-Feb-11 06:30N 29°49' W 092°16'0 0.0
2018-Feb-11 06:01N 29°49' W 092°16'0 0.0
2018-Feb-11 05:30N 29°49' W 092°16'0 0.0
2018-Feb-11 05:00N 29°49' W 092°16'0 0.0
2018-Feb-11 04:30N 29°48' W 092°16'2 3.5
2018-Feb-11 04:01N 29°48' W 092°14'3 5.1
2018-Feb-11 03:30N 29°47' W 092°11'1 2.7
2018-Feb-11 03:01N 29°47' W 092°10'2 3.9
2018-Feb-11 02:30N 29°47' W 092°08'3 6.1
2018-Feb-11 02:00N 29°48' W 092°04'2 4.6
2018-Feb-11 01:30N 29°49' W 092°02'2 4.8
2018-Feb-11 01:00N 29°50' W 091°59'  

Dump ship's entire track history